Blue Jay, California
Current Conditions -  °F | °C
As of 8:46 AM on Sunday 23 Nov 2014 (Local Time) from KSBD Reporting Station
Scattered Clouds Scattered Clouds  
Wind Chill: 68°   Ceiling: Unl
Heat Index: 68°   Visibility: 10mi
Dew Point: 16°   Wind: 9mph
Humidity: 13%   Direction: 30°NNE
Pressure: 30.16"   Gusts: NA
Location:  34.25°N, 117.21°W
Report Text: KSBD 231646Z 03008KT 10SM SCT200 20/M09 A3016
Loading
Personal Weather Stations






























Interactive Weather Map New forecast layout! Learn more

10-Day Weather Forecast

Advertisements
Track Severe Weather on mobile